createdAt,value
2023-10-10T00:01:06.961Z,13.63
2023-10-10T00:03:41.303Z,12.80
2023-10-10T00:06:14.635Z,14.05
2023-10-10T00:08:44.798Z,18.25
2023-10-10T00:11:16.149Z,14.68
2023-10-10T00:13:45.007Z,13.73
2023-10-10T00:16:13.316Z,13.55
2023-10-10T00:18:44.942Z,13.95
2023-10-10T00:23:54.514Z,13.68
2023-10-10T00:26:23.564Z,13.43
2023-10-10T00:28:58.199Z,13.57
2023-10-10T00:31:29.792Z,12.40
2023-10-10T00:33:58.006Z,16.23
2023-10-10T00:36:33.080Z,14.77
2023-10-10T00:39:21.074Z,14.02
2023-10-10T00:41:54.721Z,13.10
2023-10-10T00:44:26.686Z,13.85
2023-10-10T00:46:57.560Z,12.75
2023-10-10T00:49:27.644Z,13.48
2023-10-10T00:52:02.327Z,11.90
2023-10-10T00:54:32.904Z,11.80
2023-10-10T00:57:04.805Z,12.32
2023-10-10T00:59:36.560Z,11.00
2023-10-10T01:02:07.662Z,10.63
2023-10-10T01:04:40.396Z,11.85
2023-10-10T01:07:10.481Z,11.00
2023-10-10T01:09:52.791Z,11.10
2023-10-10T01:12:20.785Z,11.27
2023-10-10T01:14:48.852Z,11.20
2023-10-10T01:17:17.297Z,10.73
2023-10-10T01:19:45.553Z,12.15
2023-10-10T01:22:38.037Z,10.95
2023-10-10T01:25:28.031Z,10.40
2023-10-10T01:27:59.163Z,10.30
2023-10-10T01:30:40.997Z,10.13
2023-10-10T01:33:09.184Z,10.30
2023-10-10T01:35:42.636Z,10.20
2023-10-10T01:38:33.043Z,10.13
2023-10-10T01:41:06.118Z,9.90
2023-10-10T01:43:34.712Z,9.95
2023-10-10T01:46:16.219Z,8.45
2023-10-10T01:48:45.439Z,10.10
2023-10-10T01:51:16.079Z,9.52
2023-10-10T01:53:45.396Z,9.40
2023-10-10T01:56:13.542Z,8.98
2023-10-10T01:58:42.357Z,9.50
2023-10-10T02:01:15.904Z,7.90
2023-10-10T02:03:47.401Z,8.35
2023-10-10T02:06:24.152Z,7.60
2023-10-10T02:08:53.878Z,7.78
2023-10-10T02:11:22.883Z,10.30
2023-10-10T02:13:51.793Z,7.32
2023-10-10T02:16:20.150Z,7.18
2023-10-10T02:18:52.763Z,9.20
2023-10-10T02:21:33.373Z,7.45
2023-10-10T02:24:21.348Z,7.85
2023-10-10T02:26:52.794Z,6.23
2023-10-10T02:29:34.711Z,6.83
2023-10-10T02:32:13.608Z,7.00
2023-10-10T02:34:44.074Z,6.47
2023-10-10T02:37:35.564Z,7.37
2023-10-10T02:40:13.556Z,6.43
2023-10-10T02:42:41.545Z,7.83
2023-10-10T02:45:14.376Z,10.83
2023-10-10T02:47:49.991Z,8.53
2023-10-10T02:50:38.161Z,8.57
2023-10-10T02:53:08.822Z,9.63
2023-10-10T02:55:42.474Z,8.00
2023-10-10T02:58:21.584Z,6.87
2023-10-10T03:00:53.615Z,7.47
2023-10-10T03:03:21.738Z,7.60
2023-10-10T03:05:52.855Z,7.83
2023-10-10T03:08:35.663Z,5.13
2023-10-10T03:11:16.081Z,16.33
2023-10-10T03:13:49.269Z,5.47
2023-10-10T03:16:45.164Z,4.47
2023-10-10T03:19:27.149Z,5.53
2023-10-10T03:22:14.297Z,13.40
2023-10-10T03:25:06.387Z,5.80
2023-10-10T03:27:51.751Z,5.83
2023-10-10T03:30:23.393Z,5.60
2023-10-10T03:33:09.807Z,7.30
2023-10-10T03:36:00.720Z,7.40
2023-10-10T03:38:45.491Z,8.80
2023-10-10T03:41:46.877Z,8.93
2023-10-10T03:44:33.731Z,7.30
2023-10-10T03:47:19.310Z,6.17
2023-10-10T03:50:05.002Z,5.70
2023-10-10T03:52:50.625Z,6.63
2023-10-10T03:55:36.471Z,18.10
2023-10-10T03:58:21.868Z,4.83
2023-10-10T04:01:13.776Z,5.07
2023-10-10T04:03:59.460Z,6.70
2023-10-10T04:06:44.957Z,6.20
2023-10-10T04:09:30.401Z,5.00
2023-10-10T04:12:15.834Z,5.10
2023-10-10T04:15:01.459Z,5.97
2023-10-10T04:17:48.308Z,6.43
2023-10-10T04:20:34.062Z,6.70
2023-10-10T04:23:19.747Z,7.97
2023-10-10T04:26:05.374Z,6.23
2023-10-10T04:28:51.155Z,6.53
2023-10-10T04:31:42.135Z,6.63
2023-10-10T04:34:28.980Z,9.43
2023-10-10T04:37:14.323Z,9.00
2023-10-10T04:39:59.832Z,7.90
2023-10-10T04:42:45.206Z,7.10
2023-10-10T04:45:31.123Z,10.13
2023-10-10T04:48:16.747Z,10.80
2023-10-10T04:51:15.707Z,8.47
2023-10-10T04:54:01.308Z,7.80
2023-10-10T04:56:46.759Z,11.30
2023-10-10T04:59:32.660Z,8.53
2023-10-10T05:02:17.917Z,8.10
2023-10-10T05:05:03.322Z,12.10
2023-10-10T05:07:50.025Z,9.30
2023-10-10T05:10:35.774Z,8.13
2023-10-10T05:13:21.004Z,8.30
2023-10-10T05:16:06.813Z,13.67
2023-10-10T05:18:52.702Z,7.90
2023-10-10T05:21:38.075Z,7.27
2023-10-10T05:24:10.321Z,10.00
2023-10-10T05:26:47.564Z,7.10
2023-10-10T05:29:20.473Z,9.30
2023-10-10T05:31:48.727Z,8.83
2023-10-10T05:34:17.196Z,9.13
2023-10-10T05:36:46.298Z,9.00
2023-10-10T05:39:21.871Z,8.33
2023-10-10T05:41:52.647Z,6.77
2023-10-10T05:44:20.627Z,6.90
2023-10-10T05:46:48.779Z,6.10
2023-10-10T05:49:16.799Z,5.50
2023-10-10T05:51:44.707Z,6.93
2023-10-10T05:54:12.751Z,6.97
2023-10-10T05:56:42.381Z,8.20
2023-10-10T05:59:10.508Z,7.87
2023-10-10T06:01:39.686Z,8.97
2023-10-10T06:04:08.801Z,7.40
2023-10-10T06:06:37.397Z,6.77
2023-10-10T06:09:06.858Z,8.07
2023-10-10T06:11:35.849Z,7.13
2023-10-10T06:14:06.318Z,8.30
2023-10-10T06:16:34.404Z,9.23
2023-10-10T06:19:02.541Z,7.83
2023-10-10T06:21:31.228Z,8.13
2023-10-10T06:23:59.191Z,8.20
2023-10-10T06:26:27.148Z,10.47
2023-10-10T06:28:55.637Z,8.67
2023-10-10T06:31:35.117Z,8.80
2023-10-10T06:34:20.624Z,9.87
2023-10-10T06:36:49.417Z,10.77
2023-10-10T06:39:20.135Z,10.77
2023-10-10T06:41:51.344Z,12.90
2023-10-10T06:44:33.356Z,14.33
2023-10-10T06:47:10.004Z,11.90
2023-10-10T06:49:56.425Z,12.30
2023-10-10T06:52:28.804Z,13.80
2023-10-10T06:54:57.642Z,10.90
2023-10-10T06:57:42.468Z,12.03
2023-10-10T07:00:21.900Z,11.57
2023-10-10T07:02:54.997Z,11.03
2023-10-10T07:05:27.643Z,12.60
2023-10-10T07:07:59.490Z,13.17
2023-10-10T07:10:34.050Z,14.13
2023-10-10T07:13:02.231Z,12.60
2023-10-10T07:15:36.026Z,15.17
2023-10-10T07:18:16.542Z,13.97
2023-10-10T07:21:03.625Z,12.37
2023-10-10T07:23:39.465Z,13.63
2023-10-10T07:26:08.669Z,14.63
2023-10-10T07:28:49.101Z,16.37
2023-10-10T07:31:19.863Z,15.43
2023-10-10T07:33:57.272Z,13.07
2023-10-10T07:36:28.536Z,15.67
2023-10-10T07:39:17.133Z,17.23
2023-10-10T07:41:47.331Z,17.63
2023-10-10T07:44:21.127Z,14.43
2023-10-10T07:47:03.132Z,14.47
2023-10-10T07:49:32.480Z,15.43
2023-10-10T07:52:03.567Z,15.70
2023-10-10T07:54:40.073Z,16.40
2023-10-10T07:57:18.327Z,20.47
2023-10-10T07:59:47.649Z,15.80
2023-10-10T08:02:25.833Z,16.77
2023-10-10T08:04:56.131Z,17.80
2023-10-10T08:07:25.144Z,17.77
2023-10-10T08:10:13.371Z,18.57
2023-10-10T08:12:41.698Z,47.50
2023-10-10T08:15:21.147Z,49.87
2023-10-10T08:17:54.830Z,53.93
2023-10-10T08:20:52.495Z,55.20
2023-10-10T08:23:25.634Z,55.60
2023-10-10T08:25:54.190Z,56.83
2023-10-10T08:28:22.410Z,69.10
2023-10-10T08:30:50.688Z,58.40
2023-10-10T08:33:18.822Z,56.28
2023-10-10T08:35:51.029Z,54.70
2023-10-10T08:38:21.269Z,61.10
2023-10-10T08:40:59.051Z,56.88
2023-10-10T08:43:32.700Z,59.28
2023-10-10T08:46:05.037Z,58.45
2023-10-10T08:48:35.402Z,64.55
2023-10-10T08:51:07.188Z,63.70
2023-10-10T08:53:37.565Z,66.53
2023-10-10T08:56:05.760Z,70.55
2023-10-10T08:58:33.721Z,66.03
2023-10-10T09:01:02.105Z,65.25
2023-10-10T09:03:35.658Z,62.78
2023-10-10T09:06:18.548Z,53.67
2023-10-10T09:08:50.978Z,64.30
2023-10-10T09:11:21.570Z,66.07
2023-10-10T09:13:52.472Z,62.80
2023-10-10T09:16:22.943Z,63.03
2023-10-10T09:19:15.947Z,61.30
2023-10-10T09:21:55.291Z,60.78
2023-10-10T09:24:30.104Z,55.25
2023-10-10T09:27:00.418Z,58.33
2023-10-10T09:29:43.324Z,58.25
2023-10-10T09:32:15.201Z,56.38
2023-10-10T09:34:43.233Z,58.95
2023-10-10T09:37:18.942Z,55.30
2023-10-10T09:39:56.291Z,53.03
2023-10-10T09:42:29.698Z,51.50
2023-10-10T09:45:12.247Z,50.65
2023-10-10T09:47:45.106Z,49.60
2023-10-10T09:50:36.627Z,53.67
2023-10-10T09:53:20.612Z,50.53
2023-10-10T09:55:54.583Z,56.53
2023-10-10T09:58:29.427Z,53.50
2023-10-10T10:01:15.461Z,50.15
2023-10-10T10:03:56.526Z,51.28
2023-10-10T10:07:06.156Z,49.85
2023-10-10T10:10:10.346Z,51.75
2023-10-10T10:13:00.556Z,50.00
2023-10-10T10:15:49.756Z,53.13
2023-10-10T10:18:30.264Z,54.42
2023-10-10T10:21:18.039Z,52.47
2023-10-10T10:23:56.774Z,48.63
2023-10-10T10:26:43.174Z,51.42
2023-10-10T10:29:17.781Z,48.90
2023-10-10T10:31:52.879Z,53.53
2023-10-10T10:34:32.949Z,53.13
2023-10-10T10:37:07.660Z,54.70
2023-10-10T10:39:36.350Z,54.05
2023-10-10T10:42:13.140Z,53.95
2023-10-10T10:44:47.892Z,56.33
2023-10-10T10:47:47.848Z,57.40
2023-10-10T10:50:43.616Z,53.33
2023-10-10T10:53:32.771Z,58.55
2023-10-10T10:56:19.664Z,56.45
2023-10-10T10:59:11.285Z,59.92
2023-10-10T11:01:52.433Z,59.50
2023-10-10T11:04:44.366Z,60.30
2023-10-10T11:07:17.751Z,52.58
2023-10-10T11:09:54.179Z,54.75
2023-10-10T11:12:32.745Z,56.38
2023-10-10T11:15:07.945Z,43.88
2023-10-10T11:17:40.117Z,47.78
2023-10-10T11:20:25.114Z,44.78
2023-10-10T11:22:56.477Z,46.05
2023-10-10T11:25:42.467Z,47.13
2023-10-10T11:28:22.968Z,48.25
2023-10-10T11:30:57.572Z,44.88
2023-10-10T11:33:49.068Z,41.92
2023-10-10T11:36:25.611Z,45.67
2023-10-10T11:38:57.168Z,39.97
2023-10-10T11:41:30.469Z,42.35
2023-10-10T11:44:02.749Z,41.45
2023-10-10T11:46:34.198Z,42.63
2023-10-10T11:49:02.295Z,39.88
2023-10-10T11:51:36.494Z,40.50
2023-10-10T11:54:04.644Z,40.17
2023-10-10T11:56:35.584Z,41.72
2023-10-10T11:59:10.939Z,41.90
2023-10-10T12:01:53.118Z,43.42
2023-10-10T12:04:33.173Z,38.58
2023-10-10T12:07:05.368Z,40.92
2023-10-10T12:09:34.526Z,41.88
2023-10-10T12:12:04.474Z,41.10
2023-10-10T12:14:33.275Z,38.85
2023-10-10T12:17:06.849Z,42.15
2023-10-10T12:19:44.655Z,42.20
2023-10-10T12:22:12.767Z,45.53
2023-10-10T12:24:41.641Z,41.72
2023-10-10T12:27:10.247Z,40.80
2023-10-10T12:29:41.643Z,41.15
2023-10-10T12:32:19.931Z,41.70
2023-10-10T12:34:49.007Z,43.25
2023-10-10T12:37:17.994Z,38.65
2023-10-10T12:39:46.909Z,39.67
2023-10-10T12:42:15.025Z,42.10
2023-10-10T12:44:49.013Z,41.53
2023-10-10T12:47:20.579Z,39.17
2023-10-10T12:49:48.655Z,45.90
2023-10-10T12:52:18.460Z,48.67
2023-10-10T12:54:47.818Z,46.50
2023-10-10T12:57:18.743Z,48.50
2023-10-10T12:59:48.632Z,52.03
2023-10-10T13:02:18.469Z,50.45
2023-10-10T13:04:52.701Z,46.92
2023-10-10T13:07:22.384Z,48.20
2023-10-10T13:09:51.029Z,49.97
2023-10-10T13:12:31.948Z,47.47
2023-10-10T13:15:17.714Z,47.83
2023-10-10T13:17:55.364Z,45.95
2023-10-10T13:20:23.713Z,47.53
2023-10-10T13:22:52.552Z,49.55
2023-10-10T13:25:23.191Z,48.63
2023-10-10T13:27:53.549Z,51.10
2023-10-10T13:30:22.000Z,52.15
2023-10-10T13:32:52.284Z,51.60
2023-10-10T13:35:22.297Z,51.03
2023-10-10T13:37:50.235Z,49.10
2023-10-10T13:40:24.053Z,50.42
2023-10-10T13:42:52.244Z,52.05
2023-10-10T13:45:23.136Z,51.17
2023-10-10T13:47:52.664Z,50.88
2023-10-10T13:50:42.487Z,46.78
2023-10-10T13:53:13.884Z,46.63
2023-10-10T13:55:43.594Z,52.70
2023-10-10T13:58:13.701Z,49.00
2023-10-10T14:00:44.389Z,47.83
2023-10-10T14:03:16.053Z,52.10
2023-10-10T14:06:01.576Z,50.33
2023-10-10T14:08:31.676Z,48.40
2023-10-10T14:11:01.524Z,54.33
2023-10-10T14:13:29.891Z,45.95
2023-10-10T14:15:58.890Z,54.60
2023-10-10T14:18:30.010Z,45.45
2023-10-10T14:21:02.279Z,48.78
2023-10-10T14:23:36.618Z,51.65
2023-10-10T14:26:21.741Z,51.30
2023-10-10T14:28:52.463Z,47.33
2023-10-10T14:31:22.724Z,53.17
2023-10-10T14:33:53.193Z,50.22
2023-10-10T14:36:21.178Z,49.10
2023-10-10T14:38:51.372Z,49.42
2023-10-10T14:41:21.707Z,50.78
2023-10-10T14:43:52.444Z,50.47
2023-10-10T14:46:23.471Z,55.03
2023-10-10T14:49:02.094Z,60.63
2023-10-10T14:51:34.945Z,60.50
2023-10-10T14:54:08.140Z,61.97
2023-10-10T14:56:37.829Z,58.17
2023-10-10T14:59:07.298Z,59.65
2023-10-10T15:01:37.169Z,56.67
2023-10-10T15:04:07.776Z,58.38
2023-10-10T15:06:36.038Z,57.83
2023-10-10T15:09:04.350Z,58.85
2023-10-10T15:11:34.219Z,58.20
2023-10-10T15:14:02.230Z,60.42
2023-10-10T15:16:36.609Z,64.93
2023-10-10T15:19:07.869Z,62.05
2023-10-10T15:21:36.349Z,64.78
2023-10-10T15:24:06.154Z,63.67
2023-10-10T15:26:35.878Z,62.60
2023-10-10T15:29:04.437Z,63.63
2023-10-10T15:31:33.017Z,17.20
2023-10-10T15:34:01.577Z,19.35
2023-10-10T15:36:31.559Z,17.10
2023-10-10T15:39:05.028Z,17.50
2023-10-10T15:41:33.924Z,18.80
2023-10-10T15:44:03.611Z,18.90
2023-10-10T15:46:33.335Z,16.80
2023-10-10T15:49:01.702Z,19.48
2023-10-10T15:51:35.197Z,17.05
2023-10-10T15:54:04.387Z,16.85
2023-10-10T15:56:32.729Z,15.70
2023-10-10T15:59:02.099Z,16.40
2023-10-10T16:01:31.713Z,16.35
2023-10-10T16:04:06.293Z,17.48
2023-10-10T16:06:36.716Z,18.23
2023-10-10T16:09:11.876Z,17.38
2023-10-10T16:11:41.457Z,15.80
2023-10-10T16:14:12.653Z,15.60
2023-10-10T16:16:44.972Z,13.20
2023-10-10T16:19:14.618Z,13.20
2023-10-10T16:21:45.401Z,10.85
2023-10-10T16:24:15.780Z,13.85
2023-10-10T16:26:44.232Z,10.48
2023-10-10T16:29:13.659Z,10.90
2023-10-10T16:31:44.827Z,12.00
2023-10-10T16:34:13.567Z,9.35
2023-10-10T16:36:43.280Z,9.50
2023-10-10T16:39:12.369Z,8.68
2023-10-10T16:41:40.930Z,6.90
2023-10-10T16:44:12.360Z,7.28
2023-10-10T16:46:42.110Z,6.05
2023-10-10T16:49:10.672Z,5.35
2023-10-10T16:51:38.596Z,4.63
2023-10-10T16:54:08.338Z,4.22
2023-10-10T16:56:36.611Z,8.00
2023-10-10T16:59:06.032Z,4.97
2023-10-10T17:01:35.862Z,2.47
2023-10-10T17:04:04.546Z,3.85
2023-10-10T17:06:33.450Z,5.18
2023-10-10T17:09:01.463Z,5.97
2023-10-10T17:11:30.858Z,2.17
2023-10-10T17:14:00.791Z,3.83
2023-10-10T17:16:30.305Z,2.63
2023-10-10T17:21:31.646Z,3.05
2023-10-10T17:24:01.065Z,4.88
2023-10-10T17:26:31.510Z,5.40
2023-10-10T17:29:00.523Z,7.53
2023-10-10T17:31:28.677Z,4.05
2023-10-10T17:34:02.469Z,3.70
2023-10-10T17:36:30.681Z,3.70
2023-10-10T17:38:59.249Z,4.90
2023-10-10T17:41:27.232Z,4.32
2023-10-10T17:43:58.131Z,2.72
2023-10-10T17:46:26.107Z,4.60
2023-10-10T17:48:56.054Z,2.67
2023-10-10T17:51:25.021Z,2.88
2023-10-10T17:53:54.077Z,3.95
2023-10-10T17:56:24.644Z,6.60
2023-10-10T17:58:53.262Z,2.45
2023-10-10T18:01:22.849Z,3.45
2023-10-10T18:03:54.279Z,4.18
2023-10-10T18:06:23.846Z,2.92
2023-10-10T18:08:53.926Z,5.60
2023-10-10T18:11:26.223Z,10.60
2023-10-10T18:13:54.510Z,4.80
2023-10-10T18:16:23.858Z,6.28
2023-10-10T18:18:53.289Z,10.68
2023-10-10T18:21:22.330Z,11.43
2023-10-10T18:23:50.466Z,6.75
2023-10-10T18:26:21.522Z,6.85
2023-10-10T18:28:50.776Z,6.43
2023-10-10T18:31:22.478Z,8.98
2023-10-10T18:33:53.293Z,5.70
2023-10-10T18:36:21.503Z,5.65
2023-10-10T18:38:51.173Z,5.28
2023-10-10T18:41:23.644Z,6.05
2023-10-10T18:43:51.706Z,4.63
2023-10-10T18:46:19.704Z,6.28
2023-10-10T18:48:47.827Z,5.78
2023-10-10T18:51:18.131Z,7.57
2023-10-10T18:53:48.355Z,5.65
2023-10-10T18:56:16.741Z,5.55
2023-10-10T18:58:44.713Z,5.40
2023-10-10T19:01:13.875Z,4.40
2023-10-10T19:03:47.967Z,11.88
2023-10-10T19:06:18.980Z,6.85
2023-10-10T19:08:47.361Z,5.38
2023-10-10T19:11:16.195Z,5.18
2023-10-10T19:13:49.766Z,5.18
2023-10-10T19:16:18.794Z,10.23
2023-10-10T19:18:47.281Z,5.25
2023-10-10T19:21:17.904Z,5.07
2023-10-10T19:23:48.592Z,5.17
2023-10-10T19:26:16.585Z,5.28
2023-10-10T19:28:45.093Z,6.40
2023-10-10T19:31:15.483Z,5.10
2023-10-10T19:33:43.862Z,4.95
2023-10-10T19:36:11.911Z,5.30
2023-10-10T19:38:42.148Z,5.70
2023-10-10T19:41:11.111Z,4.43
2023-10-10T19:43:39.556Z,6.70
2023-10-10T19:46:11.738Z,3.97
2023-10-10T19:48:42.315Z,4.43
2023-10-10T19:51:18.511Z,3.83
2023-10-10T19:53:51.126Z,6.72
2023-10-10T19:56:19.778Z,3.40
2023-10-10T19:58:47.711Z,2.73
2023-10-10T20:01:16.911Z,3.20
2023-10-10T20:03:45.215Z,2.80
2023-10-10T20:06:20.924Z,4.50
2023-10-10T20:08:53.423Z,2.60
2023-10-10T20:11:22.506Z,3.37
2023-10-10T20:13:50.493Z,3.23
2023-10-10T20:16:20.563Z,2.17
2023-10-10T20:18:48.914Z,3.00
2023-10-10T20:21:17.899Z,3.77
2023-10-10T20:23:46.134Z,3.43
2023-10-10T20:26:20.164Z,7.97
2023-10-10T20:28:49.679Z,3.17
2023-10-10T20:31:19.802Z,4.22
2023-10-10T20:33:49.507Z,2.67
2023-10-10T20:36:18.060Z,4.72
2023-10-10T20:38:46.363Z,3.78
2023-10-10T20:41:16.011Z,3.00
2023-10-10T20:43:44.826Z,3.20
2023-10-10T20:46:19.336Z,3.15
2023-10-10T20:48:48.546Z,2.33
2023-10-10T20:51:16.729Z,3.58
2023-10-10T20:53:46.653Z,2.70
2023-10-10T20:56:17.998Z,7.15
2023-10-10T20:58:46.133Z,3.75
2023-10-10T21:01:14.907Z,3.30
2023-10-10T21:03:43.962Z,2.97
2023-10-10T21:06:12.709Z,3.03
2023-10-10T21:08:41.308Z,9.52
2023-10-10T21:11:10.362Z,3.22
2023-10-10T21:13:40.177Z,4.10
2023-10-10T21:16:15.900Z,3.78
2023-10-10T21:18:46.186Z,2.78
2023-10-10T21:21:14.471Z,3.15
2023-10-10T21:23:43.550Z,3.17
2023-10-10T21:26:14.856Z,2.50
2023-10-10T21:28:45.624Z,4.00
2023-10-10T21:31:13.866Z,6.88
2023-10-10T21:33:45.190Z,3.15
2023-10-10T21:36:14.008Z,2.70
2023-10-10T21:38:42.427Z,5.32
2023-10-10T21:41:11.110Z,3.00
2023-10-10T21:43:39.635Z,5.38
2023-10-10T21:46:09.571Z,2.97
2023-10-10T21:48:37.840Z,2.03
2023-10-10T21:51:08.456Z,3.70
2023-10-10T21:53:37.769Z,3.03
2023-10-10T21:56:06.770Z,2.45
2023-10-10T21:58:34.885Z,2.92
2023-10-10T22:01:04.298Z,2.90
2023-10-10T22:03:34.630Z,3.20
2023-10-10T22:06:03.248Z,2.63
2023-10-10T22:08:31.480Z,3.55
2023-10-10T22:11:03.261Z,3.22
2023-10-10T22:13:31.531Z,1.90
2023-10-10T22:15:59.596Z,2.33
2023-10-10T22:18:31.178Z,2.40
2023-10-10T22:21:01.566Z,8.38
2023-10-10T22:23:29.552Z,3.13
2023-10-10T22:26:03.730Z,2.60
2023-10-10T22:28:32.913Z,3.60
2023-10-10T22:31:00.939Z,2.20
2023-10-10T22:33:29.278Z,2.10
2023-10-10T22:35:57.382Z,21.75
2023-10-10T22:38:26.746Z,5.25
2023-10-10T22:40:57.084Z,2.83
2023-10-10T22:43:26.599Z,7.03
2023-10-10T22:45:54.665Z,4.78
2023-10-10T22:48:22.986Z,2.30
2023-10-10T22:50:53.985Z,5.20
2023-10-10T22:53:22.174Z,3.13
2023-10-10T22:55:52.128Z,3.20
2023-10-10T22:58:21.414Z,3.30
2023-10-10T23:00:49.751Z,2.27
2023-10-10T23:03:20.007Z,1.90
2023-10-10T23:05:48.870Z,4.20
2023-10-10T23:08:19.151Z,2.17
2023-10-10T23:10:49.478Z,4.40
2023-10-10T23:13:19.839Z,1.87
2023-10-10T23:15:51.313Z,1.47
2023-10-10T23:18:19.567Z,3.90
2023-10-10T23:20:47.797Z,10.30
2023-10-10T23:23:17.164Z,1.70
2023-10-10T23:25:45.420Z,2.30
2023-10-10T23:28:13.356Z,1.03
2023-10-10T23:30:43.398Z,1.53
2023-10-10T23:33:12.278Z,2.63
2023-10-10T23:35:41.554Z,0.80
2023-10-10T23:38:10.706Z,1.70
2023-10-10T23:40:42.852Z,1.87
2023-10-10T23:43:19.230Z,3.20
2023-10-10T23:45:55.422Z,6.00
2023-10-10T23:48:30.133Z,7.97
2023-10-10T23:50:58.696Z,1.73
2023-10-10T23:53:26.639Z,1.83
2023-10-10T23:55:56.287Z,1.70
2023-10-10T23:58:26.486Z,2.27
